Time;durP1;ratioP1;P1;durP2;ratioP2;P2;SDS_P1;SDS_P2;PMS_P1;PMS_P2;Temp;Humidity;BMP_temperature;BMP_pressure;BME280_temperature;BME280_humidity;BME280_pressure;Samples;Min_cycle;Max_cycle;Signal;HPM_P1;HPM_P2
2021/11/10 00:00:10;;;;;;;13.50;5.93;;;;;;;;;;4888465;29;20541;-88
2021/11/10 00:03:20;;;;;;;9.50;6.50;;;;;;;;;;4920013;29;20656;-88
2021/11/10 00:06:24;;;;;;;10.37;5.97;;;;;;;;;;4905948;29;20572;-87
2021/11/10 00:09:28;;;;;;;11.97;5.93;;;;;;;;;;4916570;29;20591;-87
2021/11/10 00:12:32;;;;;;;8.73;5.97;;;;;;;;;;4916385;29;20640;-87
2021/11/10 00:15:36;;;;;;;12.77;6.23;;;;;;;;;;4900919;29;21134;-87
2021/11/10 00:18:41;;;;;;;9.10;6.70;;;;;;;;;;4887986;29;20553;-86
2021/11/10 00:21:45;;;;;;;10.83;6.10;;;;;;;;;;4897744;29;20628;-87
2021/11/10 00:24:49;;;;;;;8.00;5.70;;;;;;;;;;4887392;29;20601;-88
2021/11/10 00:27:54;;;;;;;7.60;5.60;;;;;;;;;;4898300;29;20549;-88
2021/11/10 00:30:58;;;;;;;9.97;5.97;;;;;;;;;;4887773;29;20549;-87
2021/11/10 00:34:03;;;;;;;9.03;6.10;;;;;;;;;;4897983;29;20547;-87
2021/11/10 00:37:09;;;;;;;10.40;5.67;;;;;;;;;;4901425;29;20596;-88
2021/11/10 00:40:15;;;;;;;12.57;5.63;;;;;;;;;;4912881;29;20592;-86
2021/11/10 00:43:19;;;;;;;8.43;5.70;;;;;;;;;;4905923;29;20631;-88
2021/11/10 00:46:23;;;;;;;9.40;5.97;;;;;;;;;;4905851;29;20532;-87
2021/11/10 00:49:28;;;;;;;8.73;6.03;;;;;;;;;;4927476;29;20556;-86
2021/11/10 00:52:33;;;;;;;9.03;5.90;;;;;;;;;;4927383;29;21194;-86
2021/11/10 00:55:40;;;;;;;11.27;6.53;;;;;;;;;;4905657;29;20548;-86
2021/11/10 00:58:44;;;;;;;7.53;5.33;;;;;;;;;;4916565;29;20536;-88
2021/11/10 01:01:49;;;;;;;8.70;5.90;;;;;;;;;;4905893;29;20994;-87
2021/11/10 01:04:53;;;;;;;11.67;5.60;;;;;;;;;;4905478;29;20937;-86
2021/11/10 01:07:58;;;;;;;10.83;5.30;;;;;;;;;;4902451;29;20608;-87
2021/11/10 01:11:04;;;;;;;9.63;5.60;;;;;;;;;;4896671;29;20605;-88
2021/11/10 01:14:09;;;;;;;8.17;5.67;;;;;;;;;;4897957;29;20601;-88
2021/11/10 01:17:13;;;;;;;8.10;5.73;;;;;;;;;;4909499;29;20592;-86
2021/11/10 01:20:18;;;;;;;9.13;6.00;;;;;;;;;;4915939;29;20597;-88
2021/11/10 01:23:23;;;;;;;9.40;5.20;;;;;;;;;;4907934;29;20656;-86
2021/11/10 01:26:28;;;;;;;10.40;5.83;;;;;;;;;;4897139;29;20542;-86
2021/11/10 01:29:32;;;;;;;7.10;5.60;;;;;;;;;;4867592;29;20546;-87
2021/11/10 01:32:38;;;;;;;8.70;5.67;;;;;;;;;;4877997;29;20637;-87
2021/11/10 01:35:45;;;;;;;7.80;5.23;;;;;;;;;;4878381;29;20969;-88
2021/11/10 01:39:11;;;;;;;7.73;4.87;;;;;;;;;;4883483;29;20586;-87
2021/11/10 01:42:17;;;;;;;9.37;5.43;;;;;;;;;;4885992;29;20638;-86
2021/11/10 01:45:26;;;;;;;7.23;5.03;;;;;;;;;;4896690;29;20605;-87
2021/11/10 01:48:34;;;;;;;6.93;5.03;;;;;;;;;;4886781;29;21167;-88
2021/11/10 01:51:48;;;;;;;7.37;5.23;;;;;;;;;;4885929;29;20597;-88
2021/11/10 01:54:54;;;;;;;14.30;5.53;;;;;;;;;;4907907;29;20580;-86
2021/11/10 01:58:03;;;;;;;8.50;5.67;;;;;;;;;;4886691;29;20542;-87
2021/11/10 02:01:11;;;;;;;9.33;5.10;;;;;;;;;;4887120;29;20546;-87
2021/11/10 02:04:17;;;;;;;8.20;5.10;;;;;;;;;;4896423;29;20597;-87
2021/11/10 02:07:22;;;;;;;8.23;4.90;;;;;;;;;;4896260;29;20545;-86
2021/11/10 02:10:27;;;;;;;8.70;5.37;;;;;;;;;;4885755;29;20545;-88
2021/11/10 02:13:32;;;;;;;8.10;5.33;;;;;;;;;;4885887;29;20637;-87
2021/11/10 02:16:38;;;;;;;6.80;4.97;;;;;;;;;;4896378;29;20894;-87
2021/11/10 02:19:44;;;;;;;8.13;5.47;;;;;;;;;;4884780;29;20600;-86
2021/11/10 02:23:10;;;;;;;10.87;6.03;;;;;;;;;;4917108;23;20700;-86
2021/11/10 02:26:25;;;;;;;9.00;5.50;;;;;;;;;;4925121;29;20632;-86
2021/11/10 02:29:42;;;;;;;6.90;5.10;;;;;;;;;;4910074;29;20592;-88
2021/11/10 02:33:06;;;;;;;9.40;5.73;;;;;;;;;;4907686;29;20652;-87
2021/11/10 02:36:49;;;;;;;8.57;5.40;;;;;;;;;;4927475;29;20596;-88
2021/11/10 02:40:24;;;;;;;8.17;5.53;;;;;;;;;;4915964;29;21146;-87
2021/11/10 02:43:29;;;;;;;8.23;5.30;;;;;;;;;;4914266;29;20634;-87
2021/11/10 02:46:36;;;;;;;8.87;5.63;;;;;;;;;;4925164;29;20593;-86
2021/11/10 02:49:40;;;;;;;9.77;5.87;;;;;;;;;;4914399;29;20540;-86
2021/11/10 02:52:55;;;;;;;9.70;6.20;;;;;;;;;;4941035;29;20643;-86
2021/11/10 02:56:18;;;;;;;8.70;5.37;;;;;;;;;;4922630;29;20599;-86
2021/11/10 02:59:43;;;;;;;10.27;5.30;;;;;;;;;;4924515;29;20543;-87
2021/11/10 03:03:09;;;;;;;;;;;;;;;;;;;;;
2021/11/10 03:06:38;;;;;;;10.37;5.90;;;;;;;;;;4943835;29;20599;-87
2021/11/10 03:10:38;;;;;;;7.80;5.30;;;;;;;;;;4942194;29;20544;-86
2021/11/10 03:18:05;;;;;;;7.00;5.80;;;;;;;;;;4944432;29;20547;-87
2021/11/10 03:21:21;;;;;;;10.30;6.23;;;;;;;;;;4933119;29;20540;-86
2021/11/10 03:24:28;;;;;;;8.70;5.47;;;;;;;;;;4933030;29;20542;-87
2021/11/10 03:27:54;;;;;;;8.40;5.63;;;;;;;;;;4938320;29;21161;-87
2021/11/10 03:31:21;;;;;;;8.03;6.07;;;;;;;;;;4925310;29;20868;-86
2021/11/10 03:34:36;;;;;;;8.30;5.90;;;;;;;;;;4918612;29;20592;-87
2021/11/10 03:37:44;;;;;;;8.90;5.70;;;;;;;;;;4928446;29;20615;-87
2021/11/10 03:40:58;;;;;;;10.03;5.90;;;;;;;;;;4935137;29;20623;-86
2021/11/10 03:44:11;;;;;;;9.40;6.07;;;;;;;;;;4926107;29;20595;-87
2021/11/10 03:47:17;;;;;;;6.97;5.07;;;;;;;;;;4936455;29;20539;-87
2021/11/10 03:50:21;;;;;;;8.83;5.43;;;;;;;;;;4917316;29;20584;-86
2021/11/10 03:53:26;;;;;;;9.80;5.80;;;;;;;;;;4906526;29;20671;-87
2021/11/10 03:56:31;;;;;;;8.80;5.60;;;;;;;;;;4917229;29;20544;-87
2021/11/10 03:59:36;;;;;;;10.13;5.80;;;;;;;;;;4917427;29;20544;-87
2021/11/10 04:02:42;;;;;;;8.97;5.70;;;;;;;;;;4906228;29;20635;-86
2021/11/10 04:05:50;;;;;;;9.23;5.50;;;;;;;;;;4917793;29;20600;-87
2021/11/10 04:08:55;;;;;;;9.10;6.00;;;;;;;;;;4906266;29;20549;-86
2021/11/10 04:12:00;;;;;;;8.20;5.63;;;;;;;;;;4906162;29;20634;-86
2021/11/10 04:15:06;;;;;;;9.07;5.70;;;;;;;;;;4916926;29;20599;-86
2021/11/10 04:18:11;;;;;;;8.87;6.07;;;;;;;;;;4906157;29;20892;-86
2021/11/10 04:21:17;;;;;;;8.70;6.13;;;;;;;;;;4906513;29;20549;-86
2021/11/10 04:24:22;;;;;;;8.33;5.60;;;;;;;;;;4917877;29;20540;-86
2021/11/10 04:27:26;;;;;;;7.57;5.50;;;;;;;;;;4917246;29;20579;-87
2021/11/10 04:30:30;;;;;;;8.93;5.97;;;;;;;;;;4905941;29;21071;-87
2021/11/10 04:33:34;;;;;;;7.70;5.20;;;;;;;;;;4927499;29;20635;-86
2021/11/10 04:36:41;;;;;;;9.13;5.37;;;;;;;;;;4927287;29;20940;-87
2021/11/10 04:39:45;;;;;;;7.43;5.60;;;;;;;;;;4935476;29;20610;-87
2021/11/10 04:42:52;;;;;;;7.27;5.50;;;;;;;;;;4923686;29;20630;-86
2021/11/10 04:46:19;;;;;;;9.47;5.73;;;;;;;;;;4945888;29;20659;-86
2021/11/10 04:49:24;;;;;;;8.27;5.60;;;;;;;;;;4934996;29;20591;-86
2021/11/10 04:52:29;;;;;;;7.53;5.63;;;;;;;;;;4929205;29;20646;-86
2021/11/10 04:55:33;;;;;;;8.40;5.53;;;;;;;;;;4924636;29;20575;-86
2021/11/10 04:58:38;;;;;;;9.27;5.63;;;;;;;;;;4946117;29;21090;-86
2021/11/10 05:02:28;;;;;;;8.33;5.80;;;;;;;;;;4924357;29;20547;-87
2021/11/10 05:05:09;;;;;;;8.07;5.87;;;;;;;;;;4951546;28;20552;-86
2021/11/10 05:08:14;;;;;;;16.23;6.47;;;;;;;;;;4924252;29;20583;-87
2021/11/10 05:11:18;;;;;;;8.33;6.03;;;;;;;;;;4924133;29;20611;-87
2021/11/10 05:14:23;;;;;;;10.67;6.27;;;;;;;;;;4946412;29;20611;-87
2021/11/10 05:17:28;;;;;;;9.03;5.93;;;;;;;;;;4945649;29;20611;-87
2021/11/10 05:20:32;;;;;;;8.03;6.17;;;;;;;;;;4946045;29;21091;-87
2021/11/10 05:23:37;;;;;;;8.77;6.20;;;;;;;;;;4923813;29;21225;-87
2021/11/10 05:26:42;;;;;;;9.93;6.10;;;;;;;;;;4934876;29;20642;-87
2021/11/10 05:29:46;;;;;;;8.03;6.17;;;;;;;;;;4923428;29;20607;-87
2021/11/10 05:32:51;;;;;;;7.37;5.70;;;;;;;;;;4945227;29;20627;-86
2021/11/10 05:35:55;;;;;;;9.53;6.27;;;;;;;;;;4934376;29;20876;-87
2021/11/10 05:38:59;;;;;;;12.13;6.73;;;;;;;;;;4923863;29;20556;-87
2021/11/10 05:42:04;;;;;;;10.43;7.53;;;;;;;;;;4945218;29;20679;-86
2021/11/10 05:45:09;;;;;;;11.37;7.00;;;;;;;;;;4922935;29;20583;-86
2021/11/10 05:48:13;;;;;;;12.30;8.50;;;;;;;;;;4934276;29;20553;-86
2021/11/10 05:51:17;;;;;;;10.00;7.07;;;;;;;;;;4923477;29;20551;-86
2021/11/10 05:54:22;;;;;;;12.37;7.20;;;;;;;;;;4945044;29;20548;-86
2021/11/10 05:57:31;;;;;;;10.83;7.03;;;;;;;;;;4934498;29;20872;-86
2021/11/10 06:00:36;;;;;;;13.47;7.57;;;;;;;;;;4923376;29;20544;-86
2021/11/10 06:03:42;;;;;;;11.77;8.03;;;;;;;;;;4923382;29;20662;-87
2021/11/10 06:06:48;;;;;;;11.33;7.70;;;;;;;;;;4944775;29;20600;-86
2021/11/10 06:09:52;;;;;;;11.03;7.57;;;;;;;;;;4923412;29;20876;-86
2021/11/10 06:12:57;;;;;;;11.33;7.83;;;;;;;;;;4922989;29;20634;-86
2021/11/10 06:16:01;;;;;;;11.70;7.50;;;;;;;;;;4923151;29;21095;-86
2021/11/10 06:19:06;;;;;;;13.33;8.10;;;;;;;;;;4922650;29;20535;-86
2021/11/10 06:22:10;;;;;;;12.40;7.10;;;;;;;;;;4922564;29;20638;-87
2021/11/10 06:25:14;;;;;;;11.73;7.33;;;;;;;;;;4922484;29;20539;-86
2021/11/10 06:28:18;;;;;;;12.93;7.83;;;;;;;;;;4922676;29;20568;-87
2021/11/10 06:31:22;;;;;;;10.27;8.00;;;;;;;;;;4922816;29;20539;-87
2021/11/10 06:34:29;;;;;;;12.03;7.83;;;;;;;;;;4929128;29;20595;-87
2021/11/10 06:37:33;;;;;;;15.17;7.47;;;;;;;;;;4923010;29;20674;-86
2021/11/10 06:40:37;;;;;;;12.13;7.77;;;;;;;;;;4922576;29;20951;-86
2021/11/10 06:43:41;;;;;;;10.93;6.97;;;;;;;;;;4922197;29;21224;-87
2021/11/10 06:46:45;;;;;;;10.13;7.43;;;;;;;;;;4919207;29;20627;-86
2021/11/10 06:49:49;;;;;;;10.83;7.37;;;;;;;;;;4904397;29;20536;-86
2021/11/10 06:52:53;;;;;;;14.07;7.53;;;;;;;;;;4917220;29;20655;-86
2021/11/10 06:55:57;;;;;;;13.30;8.50;;;;;;;;;;4936442;29;20548;-86
2021/11/10 06:59:03;;;;;;;16.43;8.30;;;;;;;;;;4909476;29;20580;-86
2021/11/10 07:02:07;;;;;;;14.50;8.67;;;;;;;;;;4944633;29;20627;-86
2021/11/10 07:05:11;;;;;;;11.13;8.03;;;;;;;;;;4943846;28;20559;-86
2021/11/10 07:08:15;;;;;;;13.57;8.90;;;;;;;;;;4944604;29;20540;-86
2021/11/10 07:11:19;;;;;;;14.37;8.50;;;;;;;;;;4922167;29;20900;-86
2021/11/10 07:14:26;;;;;;;12.43;8.77;;;;;;;;;;4932753;29;20591;-86
2021/11/10 07:17:30;;;;;;;13.33;9.33;;;;;;;;;;4903451;29;20600;-86
2021/11/10 07:20:34;;;;;;;13.43;10.07;;;;;;;;;;4904513;29;20556;-86
2021/11/10 07:23:38;;;;;;;15.70;10.50;;;;;;;;;;4934026;29;20679;-86
2021/11/10 07:26:43;;;;;;;14.77;9.50;;;;;;;;;;4932176;29;20659;-86
2021/11/10 07:29:47;;;;;;;13.17;9.67;;;;;;;;;;4913470;29;20627;-86
2021/11/10 07:32:52;;;;;;;12.57;9.17;;;;;;;;;;4902927;29;20623;-87
2021/11/10 07:35:56;;;;;;;12.93;9.50;;;;;;;;;;4903908;29;20540;-86
2021/11/10 07:39:00;;;;;;;15.60;9.33;;;;;;;;;;4913813;29;20599;-86
2021/11/10 07:42:04;;;;;;;14.40;10.27;;;;;;;;;;4921810;29;20627;-86
2021/11/10 07:45:12;;;;;;;13.43;8.43;;;;;;;;;;4919480;29;20615;-86
2021/11/10 07:48:17;;;;;;;15.80;11.23;;;;;;;;;;4935131;29;20573;-86
2021/11/10 07:51:21;;;;;;;13.00;10.27;;;;;;;;;;4914544;29;20592;-86
2021/11/10 07:54:25;;;;;;;16.13;10.13;;;;;;;;;;4921298;29;20619;-86
2021/11/10 07:57:29;;;;;;;11.50;8.60;;;;;;;;;;4931890;29;20579;-86
2021/11/10 08:00:36;;;;;;;14.13;8.77;;;;;;;;;;4922162;29;20551;-86
2021/11/10 08:03:40;;;;;;;11.13;8.50;;;;;;;;;;4912968;29;20996;-86
2021/11/10 08:06:44;;;;;;;15.53;8.87;;;;;;;;;;4907354;29;20639;-86
2021/11/10 08:09:48;;;;;;;19.03;10.50;;;;;;;;;;4914321;29;20627;-86
2021/11/10 08:12:52;;;;;;;19.33;12.83;;;;;;;;;;4921783;29;20626;-86
2021/11/10 08:15:58;;;;;;;21.13;12.93;;;;;;;;;;4921249;29;20619;-86
2021/11/10 08:19:03;;;;;;;16.33;11.33;;;;;;;;;;4935405;29;20603;-86
2021/11/10 08:22:07;;;;;;;16.90;10.57;;;;;;;;;;4923285;29;20658;-86
2021/11/10 08:25:13;;;;;;;16.03;10.20;;;;;;;;;;4928567;29;21166;-86
2021/11/10 08:28:18;;;;;;;20.00;10.97;;;;;;;;;;4932158;29;20639;-86
2021/11/10 08:31:22;;;;;;;15.40;10.60;;;;;;;;;;4924718;29;20595;-86
2021/11/10 08:34:26;;;;;;;17.00;11.13;;;;;;;;;;4945890;29;20595;-86
2021/11/10 08:37:31;;;;;;;15.50;10.90;;;;;;;;;;4935602;29;20895;-86
2021/11/10 08:40:36;;;;;;;18.53;11.40;;;;;;;;;;4924642;29;20183;-86
2021/11/10 08:43:40;;;;;;;14.87;9.73;;;;;;;;;;4937412;29;20643;-86
2021/11/10 08:46:44;;;;;;;15.90;10.77;;;;;;;;;;4909463;29;20635;-86
2021/11/10 08:49:49;;;;;;;14.03;9.70;;;;;;;;;;4928796;29;20183;-86
2021/11/10 08:52:54;;;;;;;16.93;11.03;;;;;;;;;;4934038;29;20211;-86
2021/11/10 08:55:59;;;;;;;18.03;11.10;;;;;;;;;;4924445;29;20187;-86
2021/11/10 08:59:03;;;;;;;19.13;12.23;;;;;;;;;;4905865;29;20180;-86
2021/11/10 09:02:07;;;;;;;17.73;11.43;;;;;;;;;;4916546;29;20679;-86
2021/11/10 09:05:12;;;;;;;15.03;10.73;;;;;;;;;;4927658;29;20180;-86
2021/11/10 09:08:19;;;;;;;18.23;11.43;;;;;;;;;;4927272;29;20679;-86
2021/11/10 09:11:23;;;;;;;21.30;10.97;;;;;;;;;;4905111;29;20196;-86
2021/11/10 09:14:27;;;;;;;16.33;11.33;;;;;;;;;;4926575;29;20196;-86
2021/11/10 09:17:34;;;;;;;21.33;12.07;;;;;;;;;;4920615;29;20199;-86
2021/11/10 09:20:40;;;;;;;23.03;12.67;;;;;;;;;;4916916;29;20184;-86
2021/11/10 09:23:45;;;;;;;18.77;11.30;;;;;;;;;;4919789;29;20269;-86
2021/11/10 09:26:50;;;;;;;26.40;13.03;;;;;;;;;;4904757;29;20212;-86
2021/11/10 09:29:54;;;;;;;22.20;12.43;;;;;;;;;;4909644;29;20196;-86
2021/11/10 09:32:59;;;;;;;22.00;14.47;;;;;;;;;;4929149;29;20227;-86
2021/11/10 09:36:04;;;;;;;19.63;11.43;;;;;;;;;;4945731;29;20199;-86
2021/11/10 09:39:08;;;;;;;15.37;11.17;;;;;;;;;;4916681;29;20196;-86
2021/11/10 09:42:12;;;;;;;15.77;10.10;;;;;;;;;;4945753;29;20215;-85
2021/11/10 09:45:19;;;;;;;13.67;9.73;;;;;;;;;;4924181;29;20647;-85
2021/11/10 09:48:25;;;;;;;17.13;10.03;;;;;;;;;;4934775;29;20679;-86
2021/11/10 09:51:30;;;;;;;12.80;9.70;;;;;;;;;;4934215;29;20180;-86
2021/11/10 09:54:35;;;;;;;19.30;11.30;;;;;;;;;;4945256;29;20191;-86
2021/11/10 09:57:40;;;;;;;19.40;12.27;;;;;;;;;;4922858;29;20192;-85
2021/11/10 10:00:55;;;;;;;17.10;12.47;;;;;;;;;;4934131;29;20187;-86
2021/11/10 10:04:00;;;;;;;22.47;13.50;;;;;;;;;;4945206;29;20180;-86
2021/11/10 10:07:06;;;;;;;16.07;11.13;;;;;;;;;;4914582;29;20228;-86
2021/11/10 10:10:10;;;;;;;17.23;11.87;;;;;;;;;;4914638;29;20204;-85
2021/11/10 10:13:16;;;;;;;15.43;10.60;;;;;;;;;;4925533;29;20583;-85
2021/11/10 10:16:25;;;;;;;15.40;11.37;;;;;;;;;;4934558;29;20623;-86
2021/11/10 10:19:40;;;;;;;14.27;11.37;;;;;;;;;;4933249;29;20196;-86
2021/11/10 10:22:49;;;;;;;15.80;10.70;;;;;;;;;;4932882;29;20235;-85
2021/11/10 10:26:07;;;;;;;14.80;11.20;;;;;;;;;;4947662;23;20741;-85
2021/11/10 10:29:12;;;;;;;17.07;11.90;;;;;;;;;;4903816;29;20177;-85
2021/11/10 10:32:16;;;;;;;18.90;12.87;;;;;;;;;;4925603;29;20184;-85
2021/11/10 10:35:32;;;;;;;17.23;12.17;;;;;;;;;;4906556;29;20232;-85
2021/11/10 10:38:47;;;;;;;16.20;11.70;;;;;;;;;;4924893;29;20536;-85
2021/11/10 10:41:52;;;;;;;18.17;13.03;;;;;;;;;;4921657;29;20203;-85
2021/11/10 10:44:56;;;;;;;18.03;11.83;;;;;;;;;;4907887;29;20721;-85
2021/11/10 10:48:21;;;;;;;15.60;10.73;;;;;;;;;;4903363;29;20204;-85
2021/11/10 10:51:26;;;;;;;14.53;10.97;;;;;;;;;;4913955;29;20636;-85
2021/11/10 10:54:30;;;;;;;20.63;12.27;;;;;;;;;;4903185;29;20199;-85
2021/11/10 10:57:43;;;;;;;23.17;12.43;;;;;;;;;;4930915;29;20360;-85
2021/11/10 11:00:47;;;;;;;19.40;12.90;;;;;;;;;;4921575;29;20203;-86
2021/11/10 11:03:54;;;;;;;23.07;14.77;;;;;;;;;;4932800;29;20634;-86
2021/11/10 11:07:03;;;;;;;23.73;14.17;;;;;;;;;;4921313;29;20565;-85
2021/11/10 11:10:07;;;;;;;25.03;14.57;;;;;;;;;;4944170;29;20180;-85
2021/11/10 11:13:17;;;;;;;23.17;12.20;;;;;;;;;;4931534;29;20184;-85
2021/11/10 11:16:27;;;;;;;15.67;11.67;;;;;;;;;;4943671;29;20730;-85
2021/11/10 11:19:34;;;;;;;16.57;11.77;;;;;;;;;;4921998;29;20183;-85
2021/11/10 11:22:41;;;;;;;17.70;11.63;;;;;;;;;;4921977;29;20187;-85
2021/11/10 11:25:46;;;;;;;14.10;11.07;;;;;;;;;;4920849;29;20227;-86
2021/11/10 11:28:50;;;;;;;16.80;11.77;;;;;;;;;;4924347;29;20220;-85
2021/11/10 11:31:54;;;;;;;17.60;12.50;;;;;;;;;;4932418;29;20191;-85
2021/11/10 11:35:10;;;;;;;18.43;12.60;;;;;;;;;;4932890;29;20698;-85
2021/11/10 11:38:26;;;;;;;16.53;12.10;;;;;;;;;;4929334;29;20196;-86
2021/11/10 11:41:30;;;;;;;18.40;11.93;;;;;;;;;;4926462;29;20191;-85
2021/11/10 11:44:36;;;;;;;15.83;11.60;;;;;;;;;;4932369;29;20634;-86
2021/11/10 11:47:42;;;;;;;17.50;12.17;;;;;;;;;;4912197;29;20683;-85
2021/11/10 11:50:48;;;;;;;14.77;12.10;;;;;;;;;;4921567;29;20531;-85
2021/11/10 11:53:56;;;;;;;17.43;11.63;;;;;;;;;;4936399;29;20175;-85
2021/11/10 11:57:01;;;;;;;19.30;12.10;;;;;;;;;;4935756;29;20191;-86
2021/11/10 12:00:07;;;;;;;15.43;12.07;;;;;;;;;;4937893;29;20183;-86
2021/11/10 12:03:32;;;;;;;16.33;12.03;;;;;;;;;;4927780;29;20196;-85
2021/11/10 12:07:06;;;;;;;14.43;10.97;;;;;;;;;;4928335;29;20219;-86
2021/11/10 12:10:22;;;;;;;20.07;12.83;;;;;;;;;;4935203;29;20188;-86
2021/11/10 12:13:27;;;;;;;19.37;12.33;;;;;;;;;;4937116;29;20202;-85
2021/11/10 12:16:47;;;;;;;18.33;12.17;;;;;;;;;;4926339;29;20219;-85
2021/11/10 12:19:58;;;;;;;17.07;11.80;;;;;;;;;;4928099;29;20189;-85
2021/11/10 12:23:03;;;;;;;13.80;10.70;;;;;;;;;;4917772;29;20191;-86
2021/11/10 12:26:10;;;;;;;22.13;12.60;;;;;;;;;;4934954;29;20223;-86
2021/11/10 12:29:40;;;;;;;16.20;11.83;;;;;;;;;;4924165;29;20219;-85
2021/11/10 12:32:50;;;;;;;16.77;12.10;;;;;;;;;;4917099;29;20191;-85
2021/11/10 12:35:54;;;;;;;16.20;11.37;;;;;;;;;;4935891;29;20552;-85
2021/11/10 12:39:03;;;;;;;14.23;11.23;;;;;;;;;;4905805;29;20196;-85
2021/11/10 12:42:10;;;;;;;16.80;12.57;;;;;;;;;;4921032;29;20200;-86
2021/11/10 12:45:19;;;;;;;15.77;11.67;;;;;;;;;;4935370;29;20689;-85
2021/11/10 12:49:04;;;;;;;19.00;11.70;;;;;;;;;;4924585;29;20207;-85
2021/11/10 12:52:14;;;;;;;18.87;13.43;;;;;;;;;;4922413;29;20211;-85
2021/11/10 12:55:22;;;;;;;17.77;13.57;;;;;;;;;;4924454;29;20678;-85
2021/11/10 12:58:26;;;;;;;26.37;16.07;;;;;;;;;;4905404;29;20180;-85
2021/11/10 13:01:33;;;;;;;18.77;12.20;;;;;;;;;;4905553;29;20188;-85
2021/11/10 13:04:37;;;;;;;19.60;12.77;;;;;;;;;;4912013;29;20672;-86
2021/11/10 13:07:50;;;;;;;16.93;12.73;;;;;;;;;;4934938;29;20215;-85
2021/11/10 13:10:55;;;;;;;18.90;13.17;;;;;;;;;;4905295;29;20188;-85
2021/11/10 13:14:14;;;;;;;18.60;12.80;;;;;;;;;;4934307;29;20699;-85
2021/11/10 13:17:21;;;;;;;16.93;13.07;;;;;;;;;;4924095;29;20184;-85
2021/11/10 13:20:25;;;;;;;14.63;11.60;;;;;;;;;;4923765;29;20179;-85
2021/11/10 13:23:33;;;;;;;20.43;15.77;;;;;;;;;;4910838;29;20196;-85
2021/11/10 13:26:37;;;;;;;22.10;15.30;;;;;;;;;;4919183;29;20232;-86
2021/11/10 13:29:49;;;;;;;21.03;12.97;;;;;;;;;;4934381;29;20212;-86
2021/11/10 13:32:53;;;;;;;16.40;11.80;;;;;;;;;;4913743;29;20196;-86
2021/11/10 13:36:18;;;;;;;17.33;12.37;;;;;;;;;;4943609;29;20211;-85
2021/11/10 13:39:23;;;;;;;19.77;13.47;;;;;;;;;;4934468;29;20175;-85
2021/11/10 13:42:28;;;;;;;16.83;13.00;;;;;;;;;;4923323;29;20183;-85
2021/11/10 13:45:33;;;;;;;15.47;10.80;;;;;;;;;;4904248;29;20220;-85
2021/11/10 13:48:37;;;;;;;15.20;12.00;;;;;;;;;;4925876;29;20223;-86
2021/11/10 13:51:55;;;;;;;14.50;11.07;;;;;;;;;;4933924;29;20192;-86
2021/11/10 13:55:04;;;;;;;16.27;12.20;;;;;;;;;;4922720;29;20219;-86
2021/11/10 13:58:14;;;;;;;19.17;13.00;;;;;;;;;;4915147;29;20180;-86
2021/11/10 14:01:18;;;;;;;15.07;12.80;;;;;;;;;;4914885;29;20185;-86
2021/11/10 14:04:23;;;;;;;19.87;13.07;;;;;;;;;;4915062;29;20204;-86
2021/11/10 14:07:29;;;;;;;19.57;12.77;;;;;;;;;;4917427;29;20546;-86
2021/11/10 14:10:33;;;;;;;17.90;13.97;;;;;;;;;;4933949;29;20184;-86
2021/11/10 14:13:38;;;;;;;19.13;13.10;;;;;;;;;;4933869;29;20183;-86
2021/11/10 14:16:42;;;;;;;22.17;14.20;;;;;;;;;;4922889;29;20218;-86
2021/11/10 14:19:54;;;;;;;18.87;13.33;;;;;;;;;;4922522;29;20183;-86
2021/11/10 14:23:29;;;;;;;19.43;12.37;;;;;;;;;;4922923;29;20195;-86
2021/11/10 14:26:33;;;;;;;18.17;12.73;;;;;;;;;;4944188;29;20222;-86
2021/11/10 14:29:37;;;;;;;18.40;13.07;;;;;;;;;;4922376;29;20223;-86
2021/11/10 14:32:44;;;;;;;18.97;13.27;;;;;;;;;;4922146;29;20548;-86
2021/11/10 14:35:55;;;;;;;17.93;13.50;;;;;;;;;;4922559;29;20219;-86
2021/11/10 14:39:00;;;;;;;19.07;12.60;;;;;;;;;;4914649;29;20180;-86
2021/11/10 14:42:10;;;;;;;16.67;13.00;;;;;;;;;;4914320;29;20176;-86
2021/11/10 14:45:18;;;;;;;17.57;13.97;;;;;;;;;;4905687;29;20226;-86
2021/11/10 14:48:34;;;;;;;17.97;13.57;;;;;;;;;;4943563;29;20228;-86
2021/11/10 14:51:55;;;;;;;19.67;13.10;;;;;;;;;;4933146;29;20188;-86
2021/11/10 14:55:10;;;;;;;17.47;13.20;;;;;;;;;;4907152;29;20219;-86
2021/11/10 14:58:19;;;;;;;16.63;12.80;;;;;;;;;;4924725;29;20188;-86
2021/11/10 15:01:24;;;;;;;16.80;12.43;;;;;;;;;;4940305;29;20207;-86
2021/11/10 15:04:28;;;;;;;20.90;13.37;;;;;;;;;;4943932;29;20191;-86
2021/11/10 15:07:34;;;;;;;16.97;12.50;;;;;;;;;;4911894;29;20200;-86
2021/11/10 15:10:38;;;;;;;17.37;12.50;;;;;;;;;;4913909;29;20671;-86
2021/11/10 15:13:42;;;;;;;19.73;14.67;;;;;;;;;;4931565;29;20203;-86
2021/11/10 15:16:47;;;;;;;22.70;14.93;;;;;;;;;;4932436;29;20231;-86
2021/11/10 15:20:04;;;;;;;20.93;15.57;;;;;;;;;;4922125;29;20509;-86
2021/11/10 15:23:10;;;;;;;21.07;14.83;;;;;;;;;;4922701;29;20188;-86
2021/11/10 15:26:14;;;;;;;20.63;14.43;;;;;;;;;;4932434;28;20222;-86
2021/11/10 15:29:18;;;;;;;21.67;14.20;;;;;;;;;;4926918;29;20211;-86
2021/11/10 15:32:23;;;;;;;19.23;12.67;;;;;;;;;;4920441;29;20184;-86
2021/11/10 15:35:32;;;;;;;24.73;13.90;;;;;;;;;;4906721;29;20228;-86
2021/11/10 15:38:37;;;;;;;25.17;14.13;;;;;;;;;;4928690;29;20180;-85
2021/11/10 15:41:41;;;;;;;21.63;14.53;;;;;;;;;;4909494;29;20199;-87
2021/11/10 15:44:47;;;;;;;19.27;11.47;;;;;;;;;;4937039;29;20731;-89
2021/11/10 15:47:51;;;;;;;21.97;14.60;;;;;;;;;;4947629;29;20184;-86
2021/11/10 15:50:58;;;;;;;25.97;15.50;;;;;;;;;;4936174;29;20192;-86
2021/11/10 15:54:03;;;;;;;22.40;14.67;;;;;;;;;;4907043;29;20176;-89
2021/11/10 15:57:08;;;;;;;21.43;14.60;;;;;;;;;;4921257;29;20536;-86
2021/11/10 16:00:16;;;;;;;21.70;13.97;;;;;;;;;;4932247;29;20199;-86
2021/11/10 16:03:24;;;;;;;20.10;14.03;;;;;;;;;;4913506;29;20192;-87
2021/11/10 16:06:28;;;;;;;21.03;13.83;;;;;;;;;;4938175;29;20218;-86
2021/11/10 16:09:32;;;;;;;19.77;13.23;;;;;;;;;;4921142;29;20215;-86
2021/11/10 16:12:37;;;;;;;20.30;13.07;;;;;;;;;;4916673;29;20192;-86
2021/11/10 16:15:41;;;;;;;17.67;12.77;;;;;;;;;;4913809;29;20216;-86
2021/11/10 16:18:45;;;;;;;19.80;13.63;;;;;;;;;;4931778;29;20191;-87
2021/11/10 16:21:49;;;;;;;20.23;13.70;;;;;;;;;;4919854;29;20651;-86
2021/11/10 16:24:54;;;;;;;19.87;14.17;;;;;;;;;;4942967;29;20227;-86
2021/11/10 16:28:23;;;;;;;20.97;14.30;;;;;;;;;;4911343;29;20200;-85
2021/11/10 16:34:40;;;;;;;22.83;14.47;;;;;;;;;;4929588;29;20195;-85
2021/11/10 16:37:45;;;;;;;28.37;15.93;;;;;;;;;;4912579;29;20188;-85
2021/11/10 16:40:49;;;;;;;22.97;15.87;;;;;;;;;;4927171;29;20191;-85
2021/11/10 16:43:54;;;;;;;28.80;18.60;;;;;;;;;;4942228;29;20675;-85
2021/11/10 16:46:58;;;;;;;25.43;18.67;;;;;;;;;;4930963;29;20207;-85
2021/11/10 16:50:02;;;;;;;26.93;17.77;;;;;;;;;;4942615;29;20227;-85
2021/11/10 16:53:07;;;;;;;26.53;17.33;;;;;;;;;;4914960;29;20646;-86
2021/11/10 16:56:11;;;;;;;24.83;16.37;;;;;;;;;;4920121;29;20227;-85
2021/11/10 16:59:16;;;;;;;21.77;15.77;;;;;;;;;;4920528;29;20195;-85
2021/11/10 17:02:21;;;;;;;23.13;15.30;;;;;;;;;;4920306;29;20195;-85
2021/11/10 17:05:26;;;;;;;22.97;13.50;;;;;;;;;;4942224;29;20223;-85
2021/11/10 17:08:30;;;;;;;21.03;13.37;;;;;;;;;;4930556;29;20579;-85
2021/11/10 17:11:34;;;;;;;18.47;12.80;;;;;;;;;;4920248;29;20560;-85
2021/11/10 17:14:38;;;;;;;19.23;12.23;;;;;;;;;;4913440;29;20196;-85
2021/11/10 17:17:43;;;;;;;18.03;12.53;;;;;;;;;;4919971;29;20283;-85
2021/11/10 17:20:48;;;;;;;18.47;12.73;;;;;;;;;;4930700;29;20206;-85
2021/11/10 17:23:52;;;;;;;17.83;12.13;;;;;;;;;;4924439;29;20195;-85
2021/11/10 17:26:56;;;;;;;19.33;12.30;;;;;;;;;;4920543;29;20227;-85
2021/11/10 17:30:00;;;;;;;17.90;13.10;;;;;;;;;;4930970;29;20219;-85
2021/11/10 17:33:07;;;;;;;19.13;12.47;;;;;;;;;;4941247;29;20187;-85
2021/11/10 17:36:11;;;;;;;18.70;12.67;;;;;;;;;;4930764;29;20571;-85
2021/11/10 17:39:17;;;;;;;17.87;12.50;;;;;;;;;;4920409;29;20197;-85
2021/11/10 17:42:21;;;;;;;15.73;11.83;;;;;;;;;;4930938;29;20203;-85
2021/11/10 17:45:25;;;;;;;18.07;13.33;;;;;;;;;;4905469;29;20219;-85
2021/11/10 17:48:30;;;;;;;16.50;12.37;;;;;;;;;;4919756;29;20184;-85
2021/11/10 17:51:36;;;;;;;21.70;13.60;;;;;;;;;;4930013;29;20192;-85
2021/11/10 17:54:40;;;;;;;18.77;13.07;;;;;;;;;;4919765;29;20569;-85
2021/11/10 17:57:45;;;;;;;23.83;15.33;;;;;;;;;;4930482;29;20198;-85
2021/11/10 18:00:49;;;;;;;21.97;14.83;;;;;;;;;;4920098;29;20200;-85
2021/11/10 18:03:53;;;;;;;22.57;13.73;;;;;;;;;;4919475;29;20179;-85
2021/11/10 18:06:59;;;;;;;17.37;12.30;;;;;;;;;;4906857;29;20742;-85
2021/11/10 18:10:05;;;;;;;24.37;13.67;;;;;;;;;;4911262;29;20215;-85
2021/11/10 18:13:10;;;;;;;16.67;12.30;;;;;;;;;;4915616;29;20196;-85
2021/11/10 18:16:14;;;;;;;15.80;11.57;;;;;;;;;;4930045;29;20223;-85
2021/11/10 18:19:19;;;;;;;19.23;12.93;;;;;;;;;;4930084;29;20631;-85
2021/11/10 18:22:22;;;;;;;18.30;13.13;;;;;;;;;;4930116;29;20686;-85
2021/11/10 18:25:28;;;;;;;20.87;12.67;;;;;;;;;;4929771;29;20733;-85
2021/11/10 18:28:32;;;;;;;17.60;11.83;;;;;;;;;;4919413;29;20183;-85